createdAt,value
2022-12-11T00:00:32.277Z,0
2022-12-11T00:01:32.331Z,0
2022-12-11T00:02:32.419Z,0
2022-12-11T00:03:32.278Z,0
2022-12-11T00:04:32.280Z,0
2022-12-11T00:05:32.275Z,0
2022-12-11T00:06:32.622Z,0
2022-12-11T00:07:32.257Z,0
2022-12-11T00:08:32.286Z,0
2022-12-11T00:09:32.266Z,0
2022-12-11T00:10:36.224Z,0
2022-12-11T00:11:32.270Z,0
2022-12-11T00:12:32.267Z,0
2022-12-11T00:13:32.265Z,0
2022-12-11T00:14:32.288Z,0
2022-12-11T00:15:32.273Z,0
2022-12-11T00:16:32.374Z,0
2022-12-11T00:17:32.266Z,0
2022-12-11T00:18:32.244Z,0
2022-12-11T00:19:32.270Z,0
2022-12-11T00:20:32.250Z,0
2022-12-11T00:21:32.247Z,0
2022-12-11T00:22:32.279Z,0
2022-12-11T00:23:32.545Z,0
2022-12-11T00:24:32.291Z,0
2022-12-11T00:25:32.249Z,0
2022-12-11T00:26:32.251Z,0
2022-12-11T00:27:32.272Z,0
2022-12-11T00:28:32.264Z,0
2022-12-11T00:29:32.244Z,0
2022-12-11T00:30:32.266Z,0
2022-12-11T00:31:32.295Z,0
2022-12-11T00:32:37.370Z,0
2022-12-11T00:33:32.301Z,0
2022-12-11T00:34:32.255Z,0
2022-12-11T00:35:32.264Z,0
2022-12-11T00:36:32.276Z,0
2022-12-11T00:37:32.373Z,0
2022-12-11T00:38:32.256Z,0
2022-12-11T00:39:32.278Z,0
2022-12-11T00:40:32.268Z,0
2022-12-11T00:41:32.220Z,0
2022-12-11T00:42:32.677Z,0
2022-12-11T00:43:32.293Z,0
2022-12-11T00:44:32.335Z,0
2022-12-11T00:45:32.313Z,0
2022-12-11T00:46:32.248Z,0
2022-12-11T00:47:32.408Z,0
2022-12-11T00:48:32.275Z,0
2022-12-11T00:49:32.401Z,0
2022-12-11T00:50:32.264Z,0
2022-12-11T00:51:32.293Z,0
2022-12-11T00:52:32.282Z,0
2022-12-11T00:53:32.264Z,0
2022-12-11T00:54:32.308Z,0
2022-12-11T00:55:32.260Z,0
2022-12-11T00:56:32.245Z,0
2022-12-11T00:57:32.236Z,0
2022-12-11T00:58:32.330Z,0
2022-12-11T00:59:32.267Z,0
2022-12-11T01:00:32.332Z,0
2022-12-11T01:01:32.378Z,0
2022-12-11T01:02:32.388Z,0
2022-12-11T01:03:32.264Z,0
2022-12-11T01:04:32.267Z,0
2022-12-11T01:05:32.241Z,0
2022-12-11T01:06:32.278Z,0
2022-12-11T01:07:32.313Z,0
2022-12-11T01:08:38.125Z,0
2022-12-11T01:09:32.243Z,0
2022-12-11T01:10:32.314Z,0
2022-12-11T01:11:32.398Z,0
2022-12-11T01:12:32.265Z,0
2022-12-11T01:13:32.238Z,0
2022-12-11T01:14:32.244Z,0
2022-12-11T01:15:32.278Z,0
2022-12-11T01:16:32.303Z,0
2022-12-11T01:17:32.247Z,0
2022-12-11T01:18:32.634Z,0
2022-12-11T01:19:32.271Z,0
2022-12-11T01:20:32.282Z,0
2022-12-11T01:21:32.270Z,0
2022-12-11T01:22:32.267Z,0
2022-12-11T01:23:32.305Z,0
2022-12-11T01:24:32.252Z,0
2022-12-11T01:25:32.245Z,0
2022-12-11T01:26:32.223Z,0
2022-12-11T01:27:32.334Z,0
2022-12-11T01:28:32.384Z,0
2022-12-11T01:29:32.272Z,0
2022-12-11T01:30:32.347Z,0
2022-12-11T01:31:32.292Z,0
2022-12-11T01:32:32.234Z,0
2022-12-11T01:33:32.291Z,0
2022-12-11T01:34:32.411Z,0
2022-12-11T01:35:32.272Z,0
2022-12-11T01:36:32.257Z,0
2022-12-11T01:37:32.248Z,0
2022-12-11T01:38:32.258Z,0
2022-12-11T01:39:32.298Z,0
2022-12-11T01:40:32.350Z,0
2022-12-11T01:41:32.509Z,0
2022-12-11T01:42:32.386Z,0
2022-12-11T01:43:32.427Z,0
2022-12-11T01:44:32.418Z,0
2022-12-11T01:45:32.427Z,0
2022-12-11T01:46:32.483Z,0
2022-12-11T01:47:32.436Z,0
2022-12-11T01:48:32.953Z,0
2022-12-11T01:49:32.358Z,0
2022-12-11T01:50:32.294Z,0
2022-12-11T01:51:32.264Z,0
2022-12-11T01:52:32.257Z,0
2022-12-11T01:53:32.248Z,0
2022-12-11T01:54:32.222Z,0
2022-12-11T01:55:32.292Z,0
2022-12-11T01:56:32.265Z,0
2022-12-11T01:57:32.249Z,0
2022-12-11T01:58:32.283Z,0
2022-12-11T01:59:32.257Z,0
2022-12-11T02:00:32.246Z,0
2022-12-11T02:01:32.327Z,0
2022-12-11T02:02:32.365Z,0
2022-12-11T02:03:32.298Z,0
2022-12-11T02:04:32.274Z,0
2022-12-11T02:05:32.266Z,0
2022-12-11T02:06:32.256Z,0
2022-12-11T02:07:32.280Z,0
2022-12-11T02:08:32.241Z,0
2022-12-11T02:09:32.245Z,0
2022-12-11T02:10:32.252Z,0
2022-12-11T02:11:33.124Z,0
2022-12-11T02:12:36.471Z,0
2022-12-11T02:13:40.441Z,0
2022-12-11T02:14:44.408Z,0
2022-12-11T02:15:48.464Z,0
2022-12-11T02:16:52.453Z,0
2022-12-11T02:17:56.442Z,0
2022-12-11T02:19:00.431Z,0
2022-12-11T02:20:04.516Z,0
2022-12-11T02:21:08.447Z,0
2022-12-11T02:22:12.436Z,0
2022-12-11T02:23:16.408Z,0
2022-12-11T02:24:20.424Z,0
2022-12-11T02:25:24.457Z,0
2022-12-11T02:26:28.453Z,0
2022-12-11T02:27:32.256Z,0
2022-12-11T02:28:32.258Z,0
2022-12-11T02:29:32.267Z,0
2022-12-11T02:30:32.255Z,0
2022-12-11T02:31:32.264Z,0
2022-12-11T02:32:32.243Z,0
2022-12-11T02:33:32.276Z,0
2022-12-11T02:34:32.257Z,0
2022-12-11T02:35:32.255Z,0
2022-12-11T02:36:32.330Z,0
2022-12-11T02:37:32.266Z,0
2022-12-11T02:38:32.262Z,0
2022-12-11T02:39:32.255Z,0
2022-12-11T02:40:32.239Z,0
2022-12-11T02:41:32.266Z,0
2022-12-11T02:42:32.271Z,0
2022-12-11T02:43:32.258Z,0
2022-12-11T02:44:32.246Z,0
2022-12-11T02:45:32.384Z,0
2022-12-11T02:46:32.230Z,0
2022-12-11T02:47:32.257Z,0
2022-12-11T02:48:32.283Z,0
2022-12-11T02:49:32.259Z,0
2022-12-11T02:50:32.279Z,0
2022-12-11T02:51:32.231Z,0
2022-12-11T02:52:32.269Z,0
2022-12-11T02:53:32.259Z,0
2022-12-11T02:54:32.244Z,0
2022-12-11T02:55:32.260Z,0
2022-12-11T02:56:32.233Z,0
2022-12-11T02:57:32.304Z,0
2022-12-11T02:58:32.227Z,0
2022-12-11T02:59:32.244Z,0
2022-12-11T03:00:32.281Z,0
2022-12-11T03:01:32.309Z,0
2022-12-11T03:02:32.287Z,0
2022-12-11T03:03:32.258Z,0
2022-12-11T03:04:32.342Z,0
2022-12-11T03:05:32.244Z,0
2022-12-11T03:06:32.255Z,0
2022-12-11T03:07:32.223Z,0
2022-12-11T03:08:32.319Z,0
2022-12-11T03:09:32.364Z,0
2022-12-11T03:10:32.299Z,0
2022-12-11T03:11:32.391Z,0
2022-12-11T03:12:32.427Z,0
2022-12-11T03:13:32.318Z,0
2022-12-11T03:14:32.279Z,0
2022-12-11T03:15:32.358Z,0
2022-12-11T03:16:32.401Z,0
2022-12-11T03:17:32.326Z,0
2022-12-11T03:18:32.406Z,0
2022-12-11T03:19:32.252Z,0
2022-12-11T03:20:32.417Z,0
2022-12-11T03:21:32.301Z,0
2022-12-11T03:22:32.507Z,0
2022-12-11T03:23:32.300Z,0
2022-12-11T03:24:32.339Z,0
2022-12-11T03:25:32.392Z,0
2022-12-11T03:26:32.358Z,0
2022-12-11T03:27:32.367Z,0
2022-12-11T03:28:32.288Z,0
2022-12-11T03:29:32.351Z,0
2022-12-11T03:30:32.348Z,0
2022-12-11T03:31:32.239Z,0
2022-12-11T03:32:32.556Z,0
2022-12-11T03:33:32.385Z,0
2022-12-11T03:34:32.282Z,0
2022-12-11T03:35:32.222Z,0
2022-12-11T03:36:32.294Z,0
2022-12-11T03:37:32.268Z,0
2022-12-11T03:38:32.263Z,0
2022-12-11T03:39:32.235Z,0
2022-12-11T03:40:32.374Z,0
2022-12-11T03:41:32.305Z,0
2022-12-11T03:42:32.382Z,0
2022-12-11T03:43:32.335Z,0
2022-12-11T03:44:32.249Z,0
2022-12-11T03:45:32.274Z,0
2022-12-11T03:46:32.349Z,0
2022-12-11T03:47:32.236Z,0
2022-12-11T03:48:32.241Z,0
2022-12-11T03:49:32.240Z,0
2022-12-11T03:50:32.234Z,0
2022-12-11T03:51:32.219Z,0
2022-12-11T03:52:32.249Z,0
2022-12-11T03:53:32.257Z,0
2022-12-11T03:54:32.264Z,0
2022-12-11T03:55:32.254Z,0
2022-12-11T03:56:32.226Z,0
2022-12-11T03:57:32.231Z,0
2022-12-11T03:58:32.363Z,0
2022-12-11T03:59:32.259Z,0
2022-12-11T04:00:32.244Z,0
2022-12-11T04:01:32.299Z,0
2022-12-11T04:02:32.259Z,0
2022-12-11T04:03:32.247Z,0
2022-12-11T04:04:32.261Z,0
2022-12-11T04:05:32.278Z,0
2022-12-11T04:06:32.260Z,0
2022-12-11T04:07:32.263Z,0
2022-12-11T04:08:32.224Z,0
2022-12-11T04:09:32.275Z,0
2022-12-11T04:10:32.298Z,0
2022-12-11T04:11:32.246Z,0
2022-12-11T04:12:32.254Z,0
2022-12-11T04:13:32.274Z,0
2022-12-11T04:14:32.257Z,0
2022-12-11T04:15:32.275Z,0
2022-12-11T04:16:32.286Z,0
2022-12-11T04:17:32.225Z,0
2022-12-11T04:18:32.465Z,0
2022-12-11T04:19:32.245Z,0
2022-12-11T04:20:32.225Z,0
2022-12-11T04:21:37.832Z,0
2022-12-11T04:22:32.246Z,0
2022-12-11T04:23:32.223Z,0
2022-12-11T04:24:32.218Z,0
2022-12-11T04:25:32.241Z,0
2022-12-11T04:26:32.258Z,0
2022-12-11T04:27:32.256Z,0
2022-12-11T04:28:32.249Z,0
2022-12-11T04:29:32.234Z,0
2022-12-11T04:30:34.299Z,0
2022-12-11T04:31:32.263Z,0
2022-12-11T04:32:32.230Z,0
2022-12-11T04:33:32.270Z,0
2022-12-11T04:34:32.239Z,0
2022-12-11T04:35:32.337Z,0
2022-12-11T04:36:32.226Z,0
2022-12-11T04:37:32.274Z,0
2022-12-11T04:38:32.265Z,0
2022-12-11T04:39:32.256Z,0
2022-12-11T04:40:32.217Z,0
2022-12-11T04:41:32.350Z,0
2022-12-11T04:42:32.249Z,0
2022-12-11T04:43:32.202Z,0
2022-12-11T04:44:32.277Z,0
2022-12-11T04:45:32.233Z,0
2022-12-11T04:46:32.317Z,0
2022-12-11T04:47:32.231Z,0
2022-12-11T04:48:32.261Z,0
2022-12-11T04:49:32.255Z,0
2022-12-11T04:50:32.249Z,0
2022-12-11T04:51:32.207Z,0
2022-12-11T04:52:32.242Z,0
2022-12-11T04:53:32.275Z,0
2022-12-11T04:54:32.256Z,0
2022-12-11T04:55:32.192Z,0
2022-12-11T04:56:32.241Z,0
2022-12-11T04:57:32.246Z,0
2022-12-11T04:58:32.266Z,0
2022-12-11T04:59:32.231Z,0
2022-12-11T05:00:32.211Z,0
2022-12-11T05:01:32.290Z,0
2022-12-11T05:02:32.313Z,0
2022-12-11T05:03:32.250Z,0
2022-12-11T05:04:32.207Z,0
2022-12-11T05:05:32.270Z,0
2022-12-11T05:06:32.262Z,0
2022-12-11T05:07:32.215Z,0
2022-12-11T05:08:32.234Z,0
2022-12-11T05:09:32.256Z,0
2022-12-11T05:10:32.249Z,0
2022-12-11T05:11:32.182Z,0
2022-12-11T05:12:32.248Z,0
2022-12-11T05:13:32.232Z,0
2022-12-11T05:14:32.238Z,0
2022-12-11T05:15:32.763Z,0
2022-12-11T05:16:32.224Z,0
2022-12-11T05:17:32.285Z,0
2022-12-11T05:18:32.223Z,0
2022-12-11T05:19:32.287Z,0
2022-12-11T05:20:32.239Z,0
2022-12-11T05:21:35.226Z,0
2022-12-11T05:22:32.245Z,0
2022-12-11T05:23:32.285Z,0
2022-12-11T05:24:32.248Z,0
2022-12-11T05:25:32.237Z,0
2022-12-11T05:26:32.251Z,0
2022-12-11T05:27:32.214Z,0
2022-12-11T05:28:32.214Z,0
2022-12-11T05:29:32.243Z,0
2022-12-11T05:30:32.258Z,0
2022-12-11T05:31:32.289Z,0
2022-12-11T05:32:32.226Z,0
2022-12-11T05:33:32.251Z,0
2022-12-11T05:34:32.229Z,0
2022-12-11T05:35:32.229Z,0
2022-12-11T05:36:32.226Z,0
2022-12-11T05:37:32.228Z,0
2022-12-11T05:38:32.315Z,0
2022-12-11T05:39:32.218Z,0
2022-12-11T05:40:32.232Z,0
2022-12-11T05:41:32.236Z,0
2022-12-11T05:42:32.245Z,0
2022-12-11T05:43:32.223Z,0
2022-12-11T05:44:32.232Z,0
2022-12-11T05:45:32.357Z,0
2022-12-11T05:46:32.312Z,0
2022-12-11T05:47:32.224Z,0
2022-12-11T05:48:32.356Z,0
2022-12-11T05:49:32.233Z,0
2022-12-11T05:50:32.258Z,0
2022-12-11T05:51:32.199Z,0
2022-12-11T05:52:32.227Z,0
2022-12-11T05:53:32.219Z,0
2022-12-11T05:54:32.288Z,0
2022-12-11T05:55:32.222Z,0
2022-12-11T05:56:32.236Z,0
2022-12-11T05:57:32.241Z,0
2022-12-11T05:58:32.233Z,0
2022-12-11T05:59:32.224Z,0
2022-12-11T06:00:35.844Z,0
2022-12-11T06:01:32.244Z,0
2022-12-11T06:02:32.396Z,0
2022-12-11T06:03:32.203Z,0
2022-12-11T06:04:32.239Z,0
2022-12-11T06:05:32.232Z,0
2022-12-11T06:06:32.242Z,0
2022-12-11T06:07:32.234Z,0
2022-12-11T06:08:32.256Z,0
2022-12-11T06:09:32.272Z,0
2022-12-11T06:10:32.252Z,0
2022-12-11T06:11:32.230Z,0
2022-12-11T06:12:32.228Z,0
2022-12-11T06:13:32.388Z,0
2022-12-11T06:14:32.300Z,0
2022-12-11T06:15:32.230Z,0
2022-12-11T06:16:32.308Z,0
2022-12-11T06:17:32.205Z,0
2022-12-11T06:18:32.301Z,0
2022-12-11T06:19:36.784Z,0
2022-12-11T06:20:32.195Z,0
2022-12-11T06:21:32.214Z,0
2022-12-11T06:22:32.243Z,0
2022-12-11T06:23:32.260Z,0
2022-12-11T06:24:32.226Z,0
2022-12-11T06:25:32.257Z,0
2022-12-11T06:26:32.309Z,0
2022-12-11T06:27:32.241Z,0
2022-12-11T06:28:32.300Z,0
2022-12-11T06:29:32.217Z,0
2022-12-11T06:30:38.273Z,0
2022-12-11T06:31:32.241Z,0
2022-12-11T06:32:32.381Z,0
2022-12-11T06:33:32.276Z,0
2022-12-11T06:34:32.249Z,0
2022-12-11T06:35:35.039Z,0
2022-12-11T06:36:32.203Z,0
2022-12-11T06:37:32.467Z,0
2022-12-11T06:38:32.251Z,0
2022-12-11T06:39:32.247Z,0
2022-12-11T06:40:32.213Z,0
2022-12-11T06:41:32.216Z,0
2022-12-11T06:42:32.288Z,0
2022-12-11T06:43:32.270Z,0
2022-12-11T06:44:32.288Z,0
2022-12-11T06:45:32.251Z,0
2022-12-11T06:46:32.300Z,0
2022-12-11T06:47:32.258Z,0
2022-12-11T06:48:32.562Z,0
2022-12-11T06:49:32.181Z,0
2022-12-11T06:50:32.366Z,0
2022-12-11T06:51:32.250Z,0
2022-12-11T06:52:32.228Z,0
2022-12-11T06:53:32.237Z,0
2022-12-11T06:54:32.240Z,0
2022-12-11T06:55:32.248Z,0
2022-12-11T06:56:32.234Z,0
2022-12-11T06:57:32.240Z,0
2022-12-11T06:58:32.236Z,0
2022-12-11T06:59:32.233Z,0
2022-12-11T07:00:33.653Z,0
2022-12-11T07:01:40.688Z,0
2022-12-11T07:02:44.604Z,0
2022-12-11T07:03:48.555Z,0
2022-12-11T07:04:55.279Z,0
2022-12-11T07:05:56.525Z,0
2022-12-11T07:07:00.638Z,0
2022-12-11T07:08:04.608Z,0
2022-12-11T07:09:08.562Z,0
2022-12-11T07:10:12.553Z,0
2022-12-11T07:11:16.597Z,0
2022-12-11T07:12:20.552Z,0
2022-12-11T07:13:24.543Z,0
2022-12-11T07:14:28.529Z,0
2022-12-11T07:15:34.380Z,0
2022-12-11T07:16:32.289Z,0
2022-12-11T07:17:32.219Z,0
2022-12-11T07:18:32.191Z,0
2022-12-11T07:19:32.235Z,0
2022-12-11T07:20:32.226Z,0
2022-12-11T07:21:32.222Z,0
2022-12-11T07:22:32.216Z,0
2022-12-11T07:23:32.238Z,0
2022-12-11T07:24:32.221Z,0
2022-12-11T07:25:32.217Z,0
2022-12-11T07:26:32.258Z,0
2022-12-11T07:27:32.245Z,0
2022-12-11T07:28:32.211Z,0
2022-12-11T07:29:32.216Z,0
2022-12-11T07:30:32.231Z,0
2022-12-11T07:31:32.281Z,0
2022-12-11T07:32:32.348Z,0
2022-12-11T07:33:32.230Z,0
2022-12-11T07:34:32.223Z,0
2022-12-11T07:35:32.260Z,0
2022-12-11T07:36:32.230Z,0
2022-12-11T07:37:32.228Z,0
2022-12-11T07:38:32.203Z,0
2022-12-11T07:39:32.331Z,0
2022-12-11T07:40:32.199Z,0
2022-12-11T07:41:32.296Z,0
2022-12-11T07:42:32.217Z,0
2022-12-11T07:43:32.372Z,0
2022-12-11T07:44:32.207Z,0
2022-12-11T07:45:32.219Z,0
2022-12-11T07:46:32.349Z,0
2022-12-11T07:47:32.226Z,0
2022-12-11T07:48:32.195Z,0
2022-12-11T07:49:32.241Z,0
2022-12-11T07:50:35.187Z,0
2022-12-11T07:51:32.262Z,0
2022-12-11T07:52:32.189Z,0
2022-12-11T07:53:32.236Z,0
2022-12-11T07:54:32.250Z,0
2022-12-11T07:55:32.206Z,0.36
2022-12-11T07:56:32.216Z,0.36
2022-12-11T07:57:32.240Z,0
2022-12-11T07:58:32.245Z,0.36
2022-12-11T07:59:32.291Z,0
2022-12-11T08:00:32.203Z,0.36
2022-12-11T08:01:32.269Z,1.22
2022-12-11T08:02:37.023Z,0.85
2022-12-11T08:03:32.258Z,0.36
2022-12-11T08:04:32.196Z,0
2022-12-11T08:05:32.202Z,0.36
2022-12-11T08:06:32.207Z,0.85
2022-12-11T08:07:32.207Z,0.85
2022-12-11T08:08:32.224Z,0.85
2022-12-11T08:09:32.295Z,0.36
2022-12-11T08:10:32.220Z,1.22
2022-12-11T08:11:32.255Z,1.22
2022-12-11T08:12:32.185Z,0.36
2022-12-11T08:13:32.231Z,1.22
2022-12-11T08:14:32.288Z,1.71
2022-12-11T08:15:32.598Z,0.85
2022-12-11T08:16:32.224Z,1.22
2022-12-11T08:17:36.646Z,1.71
2022-12-11T08:18:32.197Z,1.71
2022-12-11T08:19:32.226Z,2.57
2022-12-11T08:20:32.225Z,2.08
2022-12-11T08:21:32.189Z,1.71
2022-12-11T08:22:32.204Z,2.57
2022-12-11T08:23:32.211Z,2.08
2022-12-11T08:24:32.235Z,1.71
2022-12-11T08:25:32.190Z,1.71
2022-12-11T08:26:32.230Z,2.08
2022-12-11T08:27:32.243Z,2.94
2022-12-11T08:28:32.307Z,1.71
2022-12-11T08:29:32.202Z,2.57
2022-12-11T08:30:32.262Z,2.08
2022-12-11T08:31:32.221Z,2.57
2022-12-11T08:32:32.241Z,2.08
2022-12-11T08:33:32.240Z,2.94
2022-12-11T08:34:32.209Z,2.57
2022-12-11T08:35:32.236Z,2.57
2022-12-11T08:36:32.216Z,2.94
2022-12-11T08:37:32.240Z,2.57
2022-12-11T08:38:32.214Z,3.43
2022-12-11T08:39:32.367Z,2.94
2022-12-11T08:40:32.277Z,2.94
2022-12-11T08:41:32.203Z,2.94
2022-12-11T08:42:32.210Z,2.94
2022-12-11T08:43:32.225Z,3.79
2022-12-11T08:44:32.238Z,3.43
2022-12-11T08:45:32.199Z,4.28
2022-12-11T08:46:32.311Z,4.77
2022-12-11T08:47:32.211Z,5.14
2022-12-11T08:48:32.226Z,4.28
2022-12-11T08:49:34.570Z,5.14
2022-12-11T08:50:32.214Z,5.14
2022-12-11T08:51:32.221Z,5.14
2022-12-11T08:52:32.242Z,3.79
2022-12-11T08:53:32.220Z,3.79
2022-12-11T08:54:32.273Z,4.77
2022-12-11T08:55:32.222Z,4.28
2022-12-11T08:56:32.222Z,4.77
2022-12-11T08:57:32.203Z,4.77
2022-12-11T08:58:32.212Z,5.14
2022-12-11T08:59:32.378Z,4.28
2022-12-11T09:00:32.241Z,4.77
2022-12-11T09:01:32.288Z,5.14
2022-12-11T09:02:32.308Z,5.14
2022-12-11T09:03:32.214Z,4.28
2022-12-11T09:04:32.223Z,3.43
2022-12-11T09:05:32.211Z,3.79
2022-12-11T09:06:32.130Z,2.94
2022-12-11T09:07:32.258Z,3.43
2022-12-11T09:08:32.231Z,2.94
2022-12-11T09:09:32.238Z,3.43
2022-12-11T09:10:32.270Z,3.43
2022-12-11T09:11:32.265Z,4.28
2022-12-11T09:12:32.213Z,4.77
2022-12-11T09:13:32.209Z,5.99
2022-12-11T09:14:32.250Z,5.99
2022-12-11T09:15:32.325Z,6.48
2022-12-11T09:16:32.152Z,5.63
2022-12-11T09:17:32.252Z,5.99
2022-12-11T09:18:32.180Z,5.14
2022-12-11T09:19:32.626Z,5.14
2022-12-11T09:20:32.246Z,4.77
2022-12-11T09:21:32.192Z,4.28
2022-12-11T09:22:32.236Z,4.28
2022-12-11T09:23:32.296Z,4.77
2022-12-11T09:24:32.211Z,4.77
2022-12-11T09:25:32.356Z,5.14
2022-12-11T09:26:32.278Z,6.48
2022-12-11T09:27:32.221Z,5.99
2022-12-11T09:28:32.342Z,6.85
2022-12-11T09:29:32.218Z,6.48
2022-12-11T09:30:32.375Z,6.85
2022-12-11T09:31:32.275Z,6.48
2022-12-11T09:32:32.244Z,6.48
2022-12-11T09:33:32.246Z,6.48
2022-12-11T09:34:32.209Z,7.34
2022-12-11T09:35:32.251Z,6.48
2022-12-11T09:36:32.219Z,6.48
2022-12-11T09:37:32.191Z,6.85
2022-12-11T09:38:32.223Z,6.48
2022-12-11T09:39:32.211Z,7.34
2022-12-11T09:40:32.267Z,6.48
2022-12-11T09:41:32.217Z,6.85
2022-12-11T09:42:32.224Z,7.7
2022-12-11T09:43:32.216Z,8.19
2022-12-11T09:44:32.213Z,7.7
2022-12-11T09:45:32.210Z,9.05
2022-12-11T09:46:33.945Z,8.56
2022-12-11T09:47:32.297Z,9.05
2022-12-11T09:48:32.274Z,10.39
2022-12-11T09:49:32.182Z,10.39
2022-12-11T09:50:32.161Z,9.91
2022-12-11T09:51:32.240Z,9.91
2022-12-11T09:52:32.287Z,9.05
2022-12-11T09:53:34.264Z,9.05
2022-12-11T09:54:32.240Z,9.05
2022-12-11T09:55:32.236Z,9.54
2022-12-11T09:56:32.208Z,9.54
2022-12-11T09:57:32.230Z,9.54
2022-12-11T09:58:32.193Z,9.05
2022-12-11T09:59:32.220Z,8.56
2022-12-11T10:00:32.209Z,8.56
2022-12-11T10:01:32.357Z,9.05
2022-12-11T10:02:32.321Z,8.19
2022-12-11T10:03:32.207Z,9.54
2022-12-11T10:04:32.227Z,9.54
2022-12-11T10:05:32.220Z,9.54
2022-12-11T10:06:32.262Z,9.91
2022-12-11T10:07:32.232Z,10.39
2022-12-11T10:08:32.190Z,12.11
2022-12-11T10:09:32.284Z,12.48
2022-12-11T10:10:32.175Z,12.97
2022-12-11T10:11:32.224Z,14.68
2022-12-11T10:12:32.286Z,13.33
2022-12-11T10:13:32.202Z,12.11
2022-12-11T10:14:32.348Z,12.48
2022-12-11T10:15:32.312Z,11.62
2022-12-11T10:16:32.214Z,11.62
2022-12-11T10:17:32.264Z,12.48
2022-12-11T10:18:32.225Z,13.33
2022-12-11T10:19:32.354Z,12.97
2022-12-11T10:20:32.242Z,11.25
2022-12-11T10:21:32.272Z,12.48
2022-12-11T10:22:32.259Z,12.48
2022-12-11T10:23:32.335Z,12.97
2022-12-11T10:25:07.554Z,11.62
2022-12-11T10:25:32.306Z,12.11
2022-12-11T10:26:32.289Z,10.77
2022-12-11T10:27:32.301Z,9.91
2022-12-11T10:28:32.332Z,10.39
2022-12-11T10:29:32.235Z,10.77
2022-12-11T10:30:34.651Z,11.25
2022-12-11T10:31:32.409Z,10.39
2022-12-11T10:32:32.301Z,11.25
2022-12-11T10:33:32.300Z,12.97
2022-12-11T10:34:32.261Z,12.11
2022-12-11T10:35:32.302Z,11.25
2022-12-11T10:36:32.291Z,9.05
2022-12-11T10:37:32.304Z,9.05
2022-12-11T10:38:32.306Z,9.05
2022-12-11T10:39:32.313Z,9.91
2022-12-11T10:40:32.253Z,11.25
2022-12-11T10:41:32.271Z,12.11
2022-12-11T10:42:32.310Z,12.97
2022-12-11T10:43:32.301Z,13.33
2022-12-11T10:44:32.353Z,14.68
2022-12-11T10:45:32.313Z,13.82
2022-12-11T10:46:32.370Z,13.82
2022-12-11T10:47:32.311Z,14.68
2022-12-11T10:48:32.253Z,15.53
2022-12-11T10:49:32.348Z,16.02
2022-12-11T10:50:32.264Z,17.25
2022-12-11T10:51:32.300Z,17.25
2022-12-11T10:52:32.385Z,15.53
2022-12-11T10:53:32.203Z,13.33
2022-12-11T10:54:32.299Z,11.62
2022-12-11T10:55:32.909Z,11.25
2022-12-11T10:56:32.443Z,10.39
2022-12-11T10:57:32.205Z,10.77
2022-12-11T10:58:32.410Z,11.25
2022-12-11T10:59:32.243Z,10.77
2022-12-11T11:00:32.221Z,9.54
2022-12-11T11:01:32.251Z,10.77
2022-12-11T11:02:32.271Z,10.77
2022-12-11T11:03:32.237Z,11.25
2022-12-11T11:04:32.211Z,11.62
2022-12-11T11:05:32.688Z,11.62
2022-12-11T11:06:32.221Z,10.77
2022-12-11T11:07:32.237Z,12.11
2022-12-11T11:08:32.324Z,13.82
2022-12-11T11:09:32.211Z,13.33
2022-12-11T11:10:32.209Z,12.97
2022-12-11T11:11:33.956Z,12.97
2022-12-11T11:12:32.182Z,13.33
2022-12-11T11:13:32.165Z,12.48
2022-12-11T11:14:32.241Z,12.48
2022-12-11T11:15:32.212Z,12.11
2022-12-11T11:16:32.765Z,13.82
2022-12-11T11:17:35.128Z,13.82
2022-12-11T11:18:32.211Z,12.97
2022-12-11T11:19:32.243Z,12.11
2022-12-11T11:20:32.259Z,11.62
2022-12-11T11:21:33.280Z,11.25
2022-12-11T11:22:33.264Z,9.91
2022-12-11T11:23:32.215Z,9.91
2022-12-11T11:24:32.169Z,9.91
2022-12-11T11:25:32.205Z,9.54
2022-12-11T11:26:56.550Z,9.54
2022-12-11T11:27:33.356Z,9.05
2022-12-11T11:28:32.211Z,10.39
2022-12-11T11:29:32.385Z,10.39
2022-12-11T11:30:32.173Z,10.77
2022-12-11T11:31:32.234Z,10.39
2022-12-11T11:32:32.528Z,10.77
2022-12-11T11:33:32.188Z,9.91
2022-12-11T11:34:32.224Z,9.54
2022-12-11T11:35:32.230Z,9.54
2022-12-11T11:36:32.177Z,9.05
2022-12-11T11:37:32.261Z,10.39
2022-12-11T11:38:32.212Z,9.05
2022-12-11T11:39:32.230Z,8.56
2022-12-11T11:40:32.259Z,9.54
2022-12-11T11:41:32.198Z,8.56
2022-12-11T11:42:33.228Z,9.05
2022-12-11T11:43:48.643Z,9.54
2022-12-11T11:44:52.626Z,8.19
2022-12-11T11:45:56.607Z,8.56
2022-12-11T11:47:00.639Z,8.56
2022-12-11T11:48:10.954Z,8.19
2022-12-11T11:49:08.602Z,9.05
2022-12-11T11:50:12.706Z,9.54
2022-12-11T11:51:16.591Z,9.05
2022-12-11T11:52:20.662Z,9.05
2022-12-11T11:53:24.618Z,9.54
2022-12-11T11:54:28.615Z,10.39
2022-12-11T11:55:32.269Z,9.91
2022-12-11T11:56:32.202Z,10.39
2022-12-11T11:57:32.184Z,10.77
2022-12-11T11:58:32.359Z,11.62
2022-12-11T11:59:32.395Z,11.25
2022-12-11T12:00:34.043Z,10.39
2022-12-11T12:01:32.228Z,10.39
2022-12-11T12:02:32.286Z,10.77
2022-12-11T12:03:32.195Z,10.39
2022-12-11T12:04:32.194Z,10.39
2022-12-11T12:05:32.203Z,10.39
2022-12-11T12:06:32.216Z,9.91
2022-12-11T12:07:32.199Z,10.39
2022-12-11T12:08:32.187Z,9.54
2022-12-11T12:09:32.251Z,9.05
2022-12-11T12:10:32.191Z,9.91
2022-12-11T12:11:32.308Z,9.54
2022-12-11T12:12:34.141Z,9.54
2022-12-11T12:13:48.720Z,10.77
2022-12-11T12:15:32.243Z,9.05
2022-12-11T12:16:51.471Z,9.91
2022-12-11T12:17:32.443Z,9.05
2022-12-11T12:18:32.431Z,9.91
2022-12-11T12:19:32.194Z,9.05
2022-12-11T12:20:32.184Z,8.56
2022-12-11T12:21:32.193Z,9.54
2022-12-11T12:22:32.198Z,8.19
2022-12-11T12:23:36.667Z,7.34
2022-12-11T12:24:32.159Z,7.34
2022-12-11T12:25:32.190Z,7.34
2022-12-11T12:26:32.196Z,7.34
2022-12-11T12:27:51.142Z,6.85
2022-12-11T12:28:32.259Z,8.19
2022-12-11T12:29:32.184Z,8.19
2022-12-11T12:30:32.196Z,7.34
2022-12-11T12:31:32.315Z,7.7
2022-12-11T12:32:32.184Z,7.7
2022-12-11T12:33:32.190Z,7.34
2022-12-11T12:34:32.211Z,6.85
2022-12-11T12:35:32.201Z,5.99
2022-12-11T12:36:32.228Z,5.63
2022-12-11T12:37:32.205Z,6.48
2022-12-11T12:38:32.195Z,5.99
2022-12-11T12:39:32.242Z,5.99
2022-12-11T12:40:32.190Z,5.63
2022-12-11T12:41:32.155Z,5.14
2022-12-11T12:42:32.206Z,5.99
2022-12-11T12:43:32.240Z,6.48
2022-12-11T12:44:32.156Z,5.99
2022-12-11T12:45:32.242Z,5.63
2022-12-11T12:46:32.189Z,4.77
2022-12-11T12:47:32.192Z,4.77
2022-12-11T12:48:32.169Z,5.99
2022-12-11T12:49:32.177Z,4.77
2022-12-11T12:50:32.234Z,5.63
2022-12-11T12:51:32.208Z,5.63
2022-12-11T12:52:32.165Z,5.14
2022-12-11T12:53:32.256Z,5.99
2022-12-11T12:54:32.196Z,5.63
2022-12-11T12:55:32.200Z,5.63
2022-12-11T12:56:32.178Z,4.77
2022-12-11T12:57:32.201Z,4.77
2022-12-11T12:58:32.219Z,4.28
2022-12-11T12:59:32.212Z,3.79
2022-12-11T13:00:32.177Z,3.79
2022-12-11T13:01:32.310Z,3.79
2022-12-11T13:02:32.265Z,3.43
2022-12-11T13:03:32.163Z,3.43
2022-12-11T13:04:47.421Z,3.79
2022-12-11T13:05:32.225Z,2.94
2022-12-11T13:06:32.235Z,2.94
2022-12-11T13:07:32.213Z,2.94
2022-12-11T13:08:32.208Z,2.94
2022-12-11T13:09:32.260Z,3.43
2022-12-11T13:10:32.200Z,2.57
2022-12-11T13:11:32.262Z,2.94
2022-12-11T13:12:32.158Z,2.94
2022-12-11T13:13:32.238Z,2.08
2022-12-11T13:14:32.210Z,2.08
2022-12-11T13:15:32.196Z,2.08
2022-12-11T13:16:32.281Z,2.57
2022-12-11T13:17:32.192Z,1.22
2022-12-11T13:18:32.167Z,1.71
2022-12-11T13:19:33.128Z,1.22
2022-12-11T13:20:32.186Z,0.85
2022-12-11T13:21:32.169Z,0.36
2022-12-11T13:22:32.171Z,1.71
2022-12-11T13:23:32.187Z,1.71
2022-12-11T13:24:32.188Z,1.22
2022-12-11T13:25:33.654Z,1.71
2022-12-11T13:26:32.211Z,1.22
2022-12-11T13:27:32.238Z,0.85
2022-12-11T13:28:32.184Z,0.36
2022-12-11T13:29:32.175Z,1.22
2022-12-11T13:30:32.188Z,0.85
2022-12-11T13:31:32.303Z,1.22
2022-12-11T13:32:32.170Z,1.22
2022-12-11T13:33:32.267Z,0
2022-12-11T13:34:32.228Z,0.36
2022-12-11T13:35:32.181Z,0.85
2022-12-11T13:36:32.202Z,0.36
2022-12-11T13:37:32.195Z,0
2022-12-11T13:38:32.291Z,0.36
2022-12-11T13:39:32.188Z,0.36
2022-12-11T13:40:32.172Z,0
2022-12-11T13:41:32.156Z,0
2022-12-11T13:42:32.225Z,0
2022-12-11T13:43:32.215Z,0
2022-12-11T13:44:32.159Z,0
2022-12-11T13:45:32.269Z,0
2022-12-11T13:46:33.232Z,0
2022-12-11T13:47:49.534Z,0
2022-12-11T13:48:53.066Z,0
2022-12-11T13:49:56.608Z,0
2022-12-11T13:51:00.623Z,0
2022-12-11T13:52:04.635Z,0
2022-12-11T13:53:08.586Z,0
2022-12-11T13:54:16.503Z,0
2022-12-11T13:55:17.504Z,0
2022-12-11T13:56:20.625Z,0
2022-12-11T13:57:24.608Z,0
2022-12-11T13:58:28.606Z,0
2022-12-11T13:59:32.212Z,0
2022-12-11T14:00:32.213Z,0
2022-12-11T14:01:32.320Z,0
2022-12-11T14:02:32.321Z,0
2022-12-11T14:03:32.198Z,0
2022-12-11T14:04:32.215Z,0
2022-12-11T14:05:32.141Z,0
2022-12-11T14:06:32.211Z,0
2022-12-11T14:07:32.209Z,0
2022-12-11T14:08:32.266Z,0
2022-12-11T14:09:32.148Z,0
2022-12-11T14:10:32.175Z,0
2022-12-11T14:11:32.185Z,0